createdAt,value
2017-12-19T00:01:51.778Z,3.60
2017-12-19T00:04:17.523Z,3.71
2017-12-19T00:06:43.296Z,3.94
2017-12-19T00:09:09.051Z,3.67
2017-12-19T00:11:34.807Z,3.75
2017-12-19T00:14:00.564Z,3.80
2017-12-19T00:16:26.346Z,3.72
2017-12-19T00:18:52.094Z,3.69
2017-12-19T00:21:17.828Z,3.85
2017-12-19T00:23:43.578Z,3.77
2017-12-19T00:26:09.362Z,3.93
2017-12-19T00:28:35.107Z,3.90
2017-12-19T00:31:00.863Z,3.84
2017-12-19T00:33:26.625Z,3.85
2017-12-19T00:35:52.372Z,3.80
2017-12-19T00:38:18.143Z,3.90
2017-12-19T00:40:43.883Z,3.75
2017-12-19T00:43:09.643Z,3.84
2017-12-19T00:45:35.391Z,3.84
2017-12-19T00:48:01.164Z,3.86
2017-12-19T00:50:26.906Z,3.85
2017-12-19T00:52:52.664Z,3.92
2017-12-19T00:55:18.415Z,3.99
2017-12-19T00:57:44.172Z,3.94
2017-12-19T01:00:09.927Z,3.88
2017-12-19T01:02:35.679Z,3.85
2017-12-19T01:05:01.444Z,3.85
2017-12-19T01:07:27.195Z,3.88
2017-12-19T01:09:52.931Z,3.94
2017-12-19T01:12:18.750Z,4.07
2017-12-19T01:14:44.483Z,4.19
2017-12-19T01:17:10.220Z,4.13
2017-12-19T01:19:35.963Z,4.10
2017-12-19T01:22:01.699Z,4.03
2017-12-19T01:24:27.452Z,3.97
2017-12-19T01:26:53.192Z,3.96
2017-12-19T01:29:18.935Z,3.99
2017-12-19T01:31:44.679Z,3.97
2017-12-19T01:34:10.422Z,4.02
2017-12-19T01:36:36.172Z,3.99
2017-12-19T01:39:01.963Z,3.96
2017-12-19T01:41:27.716Z,4.06
2017-12-19T01:43:54.250Z,4.05
2017-12-19T01:46:20.003Z,4.07
2017-12-19T01:48:45.754Z,4.03
2017-12-19T01:51:11.503Z,4.03
2017-12-19T01:53:37.275Z,4.01
2017-12-19T01:56:03.611Z,3.93
2017-12-19T01:58:29.346Z,4.02
2017-12-19T02:00:55.094Z,4.06
2017-12-19T02:03:20.846Z,4.00
2017-12-19T02:05:46.612Z,4.09
2017-12-19T02:08:12.362Z,4.02
2017-12-19T02:10:38.111Z,3.95
2017-12-19T02:13:03.870Z,3.97
2017-12-19T02:15:29.614Z,4.00
2017-12-19T02:17:55.362Z,4.05
2017-12-19T02:20:21.140Z,4.16
2017-12-19T02:22:46.899Z,4.15
2017-12-19T02:25:12.667Z,4.17
2017-12-19T02:27:38.419Z,4.10
2017-12-19T02:30:04.184Z,4.15
2017-12-19T02:32:29.940Z,4.09
2017-12-19T02:34:55.677Z,4.16
2017-12-19T02:37:21.439Z,4.21
2017-12-19T02:39:47.207Z,4.26
2017-12-19T02:42:12.999Z,4.20
2017-12-19T02:44:38.758Z,4.13
2017-12-19T02:47:04.526Z,4.20
2017-12-19T02:49:30.289Z,4.19
2017-12-19T02:51:56.200Z,4.15
2017-12-19T02:54:21.959Z,4.24
2017-12-19T02:56:47.718Z,4.14
2017-12-19T02:59:13.479Z,4.25
2017-12-19T03:01:39.254Z,4.16
2017-12-19T03:04:05.000Z,4.14
2017-12-19T03:06:30.776Z,4.25
2017-12-19T03:08:56.578Z,4.25
2017-12-19T03:11:22.351Z,4.16
2017-12-19T03:13:48.131Z,4.05
2017-12-19T03:16:13.895Z,4.20
2017-12-19T03:18:39.684Z,4.40
2017-12-19T03:21:05.454Z,4.34
2017-12-19T03:23:31.203Z,4.30
2017-12-19T03:25:56.960Z,4.45
2017-12-19T03:28:22.721Z,4.49
2017-12-19T03:30:48.480Z,4.43
2017-12-19T03:33:14.231Z,4.46
2017-12-19T03:35:39.992Z,4.45
2017-12-19T03:38:05.771Z,4.42
2017-12-19T03:40:31.594Z,4.29
2017-12-19T03:42:57.321Z,4.30
2017-12-19T03:45:23.067Z,4.48
2017-12-19T03:47:48.858Z,4.44
2017-12-19T03:50:14.628Z,4.45
2017-12-19T03:52:40.400Z,4.35
2017-12-19T03:55:06.159Z,4.47
2017-12-19T03:57:31.915Z,4.44
2017-12-19T03:59:57.684Z,4.50
2017-12-19T04:02:23.458Z,4.56
2017-12-19T04:04:49.208Z,4.51
2017-12-19T04:07:15.008Z,4.58
2017-12-19T04:09:40.799Z,4.51
2017-12-19T04:12:06.577Z,4.49
2017-12-19T04:14:32.335Z,4.45
2017-12-19T04:16:58.100Z,4.59
2017-12-19T04:19:23.873Z,4.73
2017-12-19T04:21:49.630Z,4.68
2017-12-19T04:24:15.408Z,4.52
2017-12-19T04:26:41.159Z,4.63
2017-12-19T04:29:06.919Z,4.63
2017-12-19T04:31:32.672Z,4.76
2017-12-19T04:33:58.427Z,4.66
2017-12-19T04:36:24.183Z,4.64
2017-12-19T04:38:49.977Z,4.74
2017-12-19T04:41:15.724Z,4.69
2017-12-19T04:43:41.484Z,4.68
2017-12-19T04:46:07.260Z,4.85
2017-12-19T04:48:33.028Z,4.60
2017-12-19T04:50:58.800Z,4.60
2017-12-19T04:53:24.557Z,4.66
2017-12-19T04:55:50.336Z,4.67
2017-12-19T04:58:16.086Z,4.68
2017-12-19T05:00:41.853Z,4.53
2017-12-19T05:03:07.628Z,4.59
2017-12-19T05:05:33.384Z,4.64
2017-12-19T05:07:59.135Z,4.61
2017-12-19T05:10:24.909Z,4.70
2017-12-19T05:12:50.663Z,4.70
2017-12-19T05:15:16.424Z,4.75
2017-12-19T05:17:42.196Z,4.68
2017-12-19T05:20:07.964Z,4.66
2017-12-19T05:22:33.715Z,4.81
2017-12-19T05:24:59.507Z,4.68
2017-12-19T05:27:25.272Z,4.75
2017-12-19T05:29:51.037Z,4.82
2017-12-19T05:32:16.823Z,4.91
2017-12-19T05:34:42.567Z,4.91
2017-12-19T05:37:08.332Z,4.87
2017-12-19T05:39:34.068Z,4.86
2017-12-19T05:41:59.831Z,4.86
2017-12-19T05:44:25.604Z,4.83
2017-12-19T05:46:51.373Z,4.86
2017-12-19T05:49:17.134Z,5.03
2017-12-19T05:51:42.909Z,5.01
2017-12-19T05:54:08.684Z,5.11
2017-12-19T05:56:34.443Z,5.01
2017-12-19T05:59:00.204Z,5.02
2017-12-19T06:01:25.995Z,5.17
2017-12-19T06:03:51.746Z,5.24
2017-12-19T06:06:17.486Z,5.18
2017-12-19T06:08:43.243Z,5.25
2017-12-19T06:11:09.011Z,5.48
2017-12-19T06:13:34.792Z,5.78
2017-12-19T06:16:00.536Z,5.42
2017-12-19T06:18:26.292Z,5.27
2017-12-19T06:20:52.047Z,5.32
2017-12-19T06:23:17.829Z,5.17
2017-12-19T06:25:43.586Z,5.28
2017-12-19T06:28:09.347Z,5.28
2017-12-19T06:30:35.093Z,5.45
2017-12-19T06:33:00.848Z,5.66
2017-12-19T06:35:26.621Z,5.66
2017-12-19T06:37:52.392Z,5.62
2017-12-19T06:40:18.143Z,5.51
2017-12-19T06:42:43.891Z,5.54
2017-12-19T06:45:09.631Z,5.62
2017-12-19T06:47:35.400Z,5.97
2017-12-19T06:50:01.151Z,5.76
2017-12-19T06:52:26.939Z,5.73
2017-12-19T06:54:52.684Z,5.81
2017-12-19T06:57:18.428Z,5.51
2017-12-19T06:59:44.201Z,5.51
2017-12-19T07:02:09.964Z,5.69
2017-12-19T07:04:35.739Z,5.81
2017-12-19T07:07:01.511Z,5.92
2017-12-19T07:09:27.349Z,5.95
2017-12-19T07:11:53.066Z,5.71
2017-12-19T07:14:18.857Z,5.75
2017-12-19T07:16:44.622Z,5.49
2017-12-19T07:19:10.394Z,5.32
2017-12-19T07:21:36.172Z,5.40
2017-12-19T07:24:01.952Z,5.41
2017-12-19T07:26:27.711Z,5.31
2017-12-19T07:28:53.480Z,5.35
2017-12-19T07:31:19.252Z,5.36
2017-12-19T07:33:45.012Z,5.55
2017-12-19T07:36:10.771Z,5.46
2017-12-19T07:38:36.536Z,5.43
2017-12-19T07:41:02.304Z,5.46
2017-12-19T07:43:28.064Z,5.41
2017-12-19T07:45:53.844Z,5.44
2017-12-19T07:48:19.587Z,5.33
2017-12-19T07:50:45.339Z,5.31
2017-12-19T07:53:11.106Z,5.49
2017-12-19T07:58:09.518Z,5.60
2017-12-19T08:00:35.296Z,5.65
2017-12-19T08:03:01.052Z,5.57
2017-12-19T08:05:26.828Z,5.73
2017-12-19T08:07:59.670Z,5.61
2017-12-19T08:10:25.452Z,5.64
2017-12-19T08:12:51.217Z,5.69
2017-12-19T08:15:16.988Z,5.64
2017-12-19T08:17:42.763Z,5.58
2017-12-19T08:20:08.521Z,5.51
2017-12-19T08:22:34.299Z,5.48
2017-12-19T08:25:00.056Z,5.58
2017-12-19T08:27:25.828Z,5.58
2017-12-19T08:29:51.575Z,5.58
2017-12-19T08:32:17.347Z,5.60
2017-12-19T08:34:43.132Z,5.77
2017-12-19T08:37:08.909Z,5.96
2017-12-19T08:39:34.656Z,5.97
2017-12-19T08:42:00.431Z,5.98
2017-12-19T08:44:26.200Z,5.83
2017-12-19T08:46:51.971Z,5.96
2017-12-19T08:49:17.719Z,5.83
2017-12-19T08:51:43.697Z,5.95
2017-12-19T08:54:09.473Z,6.04
2017-12-19T08:56:35.241Z,5.97
2017-12-19T08:59:01.008Z,6.19
2017-12-19T09:01:26.769Z,6.24
2017-12-19T09:03:52.532Z,6.11
2017-12-19T09:06:18.280Z,6.17
2017-12-19T09:08:44.030Z,6.29
2017-12-19T09:11:09.780Z,6.37
2017-12-19T09:13:35.544Z,6.29
2017-12-19T09:16:01.295Z,6.12
2017-12-19T09:18:27.055Z,6.13
2017-12-19T09:20:52.828Z,6.18
2017-12-19T09:23:18.599Z,6.17
2017-12-19T09:25:44.360Z,6.22
2017-12-19T09:28:10.115Z,6.37
2017-12-19T09:30:35.863Z,6.44
2017-12-19T09:33:01.641Z,6.61
2017-12-19T09:35:27.422Z,6.51
2017-12-19T09:37:53.172Z,6.63
2017-12-19T09:40:18.931Z,6.57
2017-12-19T09:42:44.689Z,6.60
2017-12-19T09:45:10.458Z,6.72
2017-12-19T09:47:36.228Z,6.74
2017-12-19T09:50:01.993Z,6.73
2017-12-19T09:52:27.740Z,6.83
2017-12-19T09:55:00.585Z,6.75
2017-12-19T09:57:26.332Z,6.88
2017-12-19T09:59:52.100Z,6.90
2017-12-19T10:02:17.872Z,6.87
2017-12-19T10:04:43.652Z,7.06
2017-12-19T10:07:09.410Z,7.22
2017-12-19T10:09:35.176Z,7.09
2017-12-19T10:12:00.928Z,6.99
2017-12-19T10:14:26.688Z,7.09
2017-12-19T10:16:52.443Z,7.16
2017-12-19T10:19:18.207Z,7.24
2017-12-19T10:21:43.985Z,7.41
2017-12-19T10:24:09.748Z,7.50
2017-12-19T10:26:35.516Z,7.46
2017-12-19T10:29:01.284Z,7.37
2017-12-19T10:31:27.055Z,7.12
2017-12-19T10:33:52.817Z,7.20
2017-12-19T10:36:18.575Z,7.27
2017-12-19T10:38:44.356Z,7.30
2017-12-19T10:41:10.124Z,7.28
2017-12-19T10:43:35.890Z,7.18
2017-12-19T10:46:01.655Z,7.22
2017-12-19T10:48:27.440Z,7.28
2017-12-19T10:50:53.185Z,7.37
2017-12-19T10:53:18.954Z,7.31
2017-12-19T10:55:44.688Z,7.13
2017-12-19T10:58:10.439Z,7.23
2017-12-19T11:00:36.195Z,7.17
2017-12-19T11:03:01.950Z,7.16
2017-12-19T11:05:27.715Z,7.16
2017-12-19T11:07:53.476Z,7.17
2017-12-19T11:10:19.228Z,6.97
2017-12-19T11:12:44.984Z,7.13
2017-12-19T11:15:10.749Z,7.17
2017-12-19T11:17:36.520Z,7.16
2017-12-19T11:20:02.292Z,7.05
2017-12-19T11:22:28.069Z,7.15
2017-12-19T11:24:53.868Z,7.33
2017-12-19T11:27:19.652Z,7.19
2017-12-19T11:29:45.439Z,7.26
2017-12-19T11:32:11.200Z,7.25
2017-12-19T11:34:36.963Z,7.24
2017-12-19T11:37:02.726Z,7.22
2017-12-19T11:39:28.503Z,7.32
2017-12-19T11:41:54.259Z,7.35
2017-12-19T11:44:20.023Z,7.35
2017-12-19T11:46:45.784Z,7.34
2017-12-19T11:49:11.560Z,7.48
2017-12-19T11:51:37.310Z,7.42
2017-12-19T11:54:03.104Z,7.33
2017-12-19T11:56:28.863Z,7.43
2017-12-19T11:58:54.632Z,7.23
2017-12-19T12:01:20.375Z,7.34
2017-12-19T12:03:46.135Z,7.45
2017-12-19T12:06:11.884Z,7.62
2017-12-19T12:08:37.659Z,7.44
2017-12-19T12:11:03.428Z,7.48
2017-12-19T12:13:29.213Z,7.60
2017-12-19T12:15:54.960Z,7.68
2017-12-19T12:18:20.717Z,7.55
2017-12-19T12:20:46.475Z,7.54
2017-12-19T12:23:12.230Z,7.72
2017-12-19T12:25:37.988Z,7.65
2017-12-19T12:28:03.747Z,7.73
2017-12-19T12:30:29.527Z,7.33
2017-12-19T12:32:55.288Z,7.45
2017-12-19T12:35:21.068Z,7.51
2017-12-19T12:37:46.840Z,7.48
2017-12-19T12:40:12.603Z,7.56
2017-12-19T12:42:38.355Z,7.51
2017-12-19T12:45:04.102Z,7.58
2017-12-19T12:47:29.848Z,7.45
2017-12-19T12:49:55.592Z,7.36
2017-12-19T12:52:21.352Z,7.46
2017-12-19T12:54:47.103Z,7.34
2017-12-19T12:57:12.865Z,7.42
2017-12-19T12:59:38.663Z,7.37
2017-12-19T13:02:04.434Z,7.50
2017-12-19T13:04:30.219Z,7.53
2017-12-19T13:06:56.005Z,7.57
2017-12-19T13:09:21.774Z,7.53
2017-12-19T13:11:47.515Z,7.66
2017-12-19T13:14:13.290Z,7.62
2017-12-19T13:16:39.072Z,7.73
2017-12-19T13:19:04.829Z,7.87
2017-12-19T13:21:30.597Z,7.78
2017-12-19T13:23:56.359Z,7.64
2017-12-19T13:26:22.123Z,7.61
2017-12-19T13:28:47.868Z,7.85
2017-12-19T13:31:13.702Z,7.87
2017-12-19T13:33:39.399Z,7.66
2017-12-19T13:36:05.135Z,7.72
2017-12-19T13:38:30.900Z,7.68
2017-12-19T13:40:56.657Z,7.49
2017-12-19T13:43:22.407Z,7.60
2017-12-19T13:45:48.161Z,7.50
2017-12-19T13:48:13.919Z,7.46
2017-12-19T13:50:39.685Z,7.42
2017-12-19T13:53:05.455Z,7.66
2017-12-19T13:55:31.226Z,7.68
2017-12-19T13:57:56.992Z,7.72
2017-12-19T14:00:22.746Z,7.97
2017-12-19T14:02:48.495Z,8.11
2017-12-19T14:05:14.239Z,8.11
2017-12-19T14:07:40.028Z,8.14
2017-12-19T14:10:05.789Z,8.38
2017-12-19T14:12:31.533Z,8.19
2017-12-19T14:14:57.291Z,8.40
2017-12-19T14:17:23.052Z,8.16
2017-12-19T14:19:48.811Z,8.06
2017-12-19T14:22:14.568Z,7.74
2017-12-19T14:24:40.337Z,7.84
2017-12-19T14:27:06.082Z,7.77
2017-12-19T14:29:31.852Z,7.70
2017-12-19T14:31:57.615Z,7.66
2017-12-19T14:34:23.371Z,7.52
2017-12-19T14:36:49.131Z,7.69
2017-12-19T14:39:14.901Z,7.81
2017-12-19T14:41:40.656Z,7.72
2017-12-19T14:44:06.412Z,7.83
2017-12-19T14:46:32.181Z,7.95
2017-12-19T14:48:57.973Z,8.26
2017-12-19T14:51:23.727Z,7.91
2017-12-19T14:53:49.459Z,7.92
2017-12-19T14:56:15.203Z,7.89
2017-12-19T14:58:40.974Z,7.67
2017-12-19T15:01:06.732Z,7.41
2017-12-19T15:03:32.492Z,7.42
2017-12-19T15:05:58.255Z,7.82
2017-12-19T15:08:24.007Z,7.74
2017-12-19T15:10:49.777Z,7.81
2017-12-19T15:13:15.540Z,7.88
2017-12-19T15:15:41.308Z,8.03
2017-12-19T15:18:07.068Z,8.10
2017-12-19T15:20:32.824Z,7.94
2017-12-19T15:22:58.592Z,7.86
2017-12-19T15:25:24.347Z,7.84
2017-12-19T15:27:50.088Z,7.69
2017-12-19T15:30:15.847Z,8.02
2017-12-19T15:32:41.591Z,8.30
2017-12-19T15:35:07.367Z,8.40
2017-12-19T15:37:33.126Z,8.05
2017-12-19T15:39:58.891Z,8.19
2017-12-19T15:42:24.655Z,8.20
2017-12-19T15:44:50.416Z,7.82
2017-12-19T15:47:16.191Z,7.62
2017-12-19T15:49:41.951Z,7.80
2017-12-19T15:52:07.712Z,8.07
2017-12-19T15:54:33.465Z,7.98
2017-12-19T15:56:59.278Z,7.69
2017-12-19T15:59:24.997Z,7.81
2017-12-19T16:01:50.789Z,7.86
2017-12-19T16:04:16.539Z,7.99
2017-12-19T16:06:42.303Z,7.69
2017-12-19T16:09:08.065Z,7.68
2017-12-19T16:11:33.819Z,7.99
2017-12-19T16:13:59.560Z,7.86
2017-12-19T16:16:25.302Z,7.76
2017-12-19T16:18:51.059Z,7.77
2017-12-19T16:21:16.811Z,8.04
2017-12-19T16:23:42.554Z,8.09
2017-12-19T16:26:08.305Z,8.07
2017-12-19T16:28:34.051Z,7.73
2017-12-19T16:30:59.791Z,7.72
2017-12-19T16:33:25.551Z,7.46
2017-12-19T16:35:51.307Z,7.56
2017-12-19T16:38:17.080Z,7.55
2017-12-19T16:40:42.832Z,7.50
2017-12-19T16:43:08.610Z,7.50
2017-12-19T16:45:34.372Z,7.40
2017-12-19T16:48:00.131Z,7.44
2017-12-19T16:50:25.884Z,7.52
2017-12-19T16:52:51.652Z,7.51
2017-12-19T16:55:17.404Z,7.56
2017-12-19T16:57:43.161Z,7.76
2017-12-19T17:06:26.463Z,7.03
2017-12-19T17:08:52.210Z,6.64
2017-12-19T17:11:17.960Z,6.51
2017-12-19T17:13:43.699Z,6.43
2017-12-19T17:16:09.439Z,6.38
2017-12-19T17:18:35.195Z,6.37
2017-12-19T17:21:00.957Z,6.42
2017-12-19T17:23:26.739Z,6.39
2017-12-19T17:25:52.500Z,6.41
2017-12-19T17:28:18.275Z,6.38
2017-12-19T17:30:44.043Z,6.36
2017-12-19T17:33:09.831Z,6.33
2017-12-19T17:35:35.592Z,6.33
2017-12-19T17:38:01.360Z,6.37
2017-12-19T17:40:27.127Z,6.40
2017-12-19T17:42:52.916Z,6.41
2017-12-19T17:45:18.668Z,6.41
2017-12-19T17:47:44.435Z,6.39
2017-12-19T17:50:10.200Z,6.34
2017-12-19T17:52:35.961Z,6.35
2017-12-19T17:55:01.722Z,6.32
2017-12-19T17:57:27.480Z,6.35
2017-12-19T17:59:53.252Z,6.35
2017-12-19T18:02:19.003Z,6.34
2017-12-19T18:04:44.755Z,6.32
2017-12-19T18:07:10.508Z,6.35
2017-12-19T18:09:36.264Z,6.41
2017-12-19T18:12:02.019Z,6.39
2017-12-19T18:14:27.783Z,6.38
2017-12-19T18:16:53.533Z,6.32
2017-12-19T18:19:19.371Z,6.28
2017-12-19T18:21:45.124Z,6.28
2017-12-19T18:24:10.886Z,6.28
2017-12-19T18:26:36.639Z,6.29
2017-12-19T18:29:02.398Z,6.26
2017-12-19T18:31:28.163Z,6.24
2017-12-19T18:33:53.910Z,6.29
2017-12-19T18:36:19.673Z,6.26
2017-12-19T18:38:45.444Z,6.27
2017-12-19T18:41:11.206Z,6.24
2017-12-19T18:43:36.964Z,6.26
2017-12-19T18:46:02.732Z,6.25
2017-12-19T18:48:28.463Z,6.23
2017-12-19T18:50:54.219Z,6.26
2017-12-19T18:53:19.964Z,6.24
2017-12-19T18:55:45.717Z,6.18
2017-12-19T18:58:11.482Z,6.17
2017-12-19T19:00:37.263Z,6.16
2017-12-19T19:03:03.026Z,6.18
2017-12-19T19:05:28.784Z,6.17
2017-12-19T19:07:54.566Z,6.20
2017-12-19T19:10:20.311Z,6.17
2017-12-19T19:12:46.073Z,6.18
2017-12-19T19:15:11.841Z,6.22
2017-12-19T19:17:37.612Z,6.19
2017-12-19T19:20:03.392Z,6.18
2017-12-19T19:22:29.172Z,6.21
2017-12-19T19:24:54.944Z,6.18
2017-12-19T19:27:20.722Z,6.12
2017-12-19T19:29:46.492Z,6.20
2017-12-19T19:32:12.268Z,6.21
2017-12-19T19:34:38.024Z,6.17
2017-12-19T19:37:03.800Z,6.21
2017-12-19T19:39:29.543Z,6.20
2017-12-19T19:41:55.304Z,6.17
2017-12-19T19:44:21.076Z,6.15
2017-12-19T19:46:46.832Z,6.16
2017-12-19T19:49:12.584Z,6.11
2017-12-19T19:51:38.328Z,6.06
2017-12-19T19:54:04.105Z,6.05
2017-12-19T19:56:29.859Z,6.09
2017-12-19T19:58:55.619Z,6.07
2017-12-19T20:01:21.372Z,6.05
2017-12-19T20:03:47.135Z,6.03
2017-12-19T20:06:12.912Z,6.04
2017-12-19T20:08:38.652Z,6.07
2017-12-19T20:11:04.402Z,6.02
2017-12-19T20:13:30.159Z,6.04
2017-12-19T20:15:55.910Z,6.06
2017-12-19T20:18:21.655Z,6.05
2017-12-19T20:20:47.419Z,6.07
2017-12-19T20:23:13.174Z,6.06
2017-12-19T20:25:38.927Z,6.03
2017-12-19T20:28:04.691Z,6.05
2017-12-19T20:30:30.460Z,6.06
2017-12-19T20:32:56.224Z,6.01
2017-12-19T20:35:22.015Z,6.03
2017-12-19T20:37:47.788Z,5.99
2017-12-19T20:40:13.549Z,5.97
2017-12-19T20:42:39.300Z,5.99
2017-12-19T20:45:05.051Z,5.98
2017-12-19T20:47:30.803Z,5.98
2017-12-19T20:49:56.554Z,5.97
2017-12-19T20:52:22.299Z,5.93
2017-12-19T20:54:48.048Z,5.91
2017-12-19T20:57:13.804Z,5.92
2017-12-19T20:59:39.567Z,5.94
2017-12-19T21:02:05.337Z,5.92
2017-12-19T21:04:31.084Z,5.91
2017-12-19T21:06:56.831Z,5.88
2017-12-19T21:09:22.591Z,5.89
2017-12-19T21:11:48.363Z,5.89
2017-12-19T21:14:14.112Z,5.90
2017-12-19T21:16:39.868Z,5.91
2017-12-19T21:19:05.614Z,5.91
2017-12-19T21:21:31.363Z,5.87
2017-12-19T21:23:57.104Z,5.86
2017-12-19T21:26:22.876Z,5.87
2017-12-19T21:28:48.624Z,5.85
2017-12-19T21:31:14.363Z,5.87
2017-12-19T21:33:40.136Z,5.86
2017-12-19T21:36:05.891Z,5.87
2017-12-19T21:38:31.676Z,5.87
2017-12-19T21:40:57.415Z,5.87
2017-12-19T21:43:23.190Z,5.87
2017-12-19T21:45:48.936Z,5.86
2017-12-19T21:48:14.687Z,5.84
2017-12-19T21:50:40.441Z,5.85
2017-12-19T21:53:06.220Z,5.86
2017-12-19T21:55:31.974Z,5.87
2017-12-19T21:57:57.723Z,5.88
2017-12-19T22:00:23.467Z,5.87
2017-12-19T22:02:49.223Z,5.88
2017-12-19T22:05:14.975Z,5.88
2017-12-19T22:07:40.755Z,5.87
2017-12-19T22:10:06.504Z,5.85
2017-12-19T22:12:32.261Z,5.86
2017-12-19T22:14:58.024Z,5.85
2017-12-19T22:17:23.779Z,5.86
2017-12-19T22:19:49.532Z,5.86
2017-12-19T22:22:15.284Z,5.86
2017-12-19T22:24:41.060Z,5.87
2017-12-19T22:27:06.811Z,5.89
2017-12-19T22:29:32.555Z,5.86
2017-12-19T22:31:58.309Z,5.85
2017-12-19T22:34:24.076Z,5.88
2017-12-19T22:36:49.823Z,5.87
2017-12-19T22:39:15.592Z,5.88
2017-12-19T22:41:41.351Z,5.88
2017-12-19T22:44:07.115Z,5.86
2017-12-19T22:46:32.987Z,5.86
2017-12-19T22:48:58.742Z,5.87
2017-12-19T22:51:24.500Z,5.87
2017-12-19T22:53:50.253Z,5.86
2017-12-19T22:56:16.016Z,5.87
2017-12-19T22:58:41.778Z,5.85
2017-12-19T23:01:07.556Z,5.83
2017-12-19T23:03:33.316Z,5.83
2017-12-19T23:05:59.081Z,5.82
2017-12-19T23:08:24.848Z,5.81
2017-12-19T23:10:50.622Z,5.80
2017-12-19T23:13:16.381Z,5.80
2017-12-19T23:15:42.142Z,5.80
2017-12-19T23:18:07.919Z,5.79
2017-12-19T23:20:33.673Z,5.79
2017-12-19T23:22:59.435Z,5.81
2017-12-19T23:25:25.196Z,5.82
2017-12-19T23:27:50.952Z,5.79
2017-12-19T23:30:16.713Z,5.78
2017-12-19T23:32:42.482Z,5.77
2017-12-19T23:35:08.232Z,5.77
2017-12-19T23:37:34.006Z,5.76
2017-12-19T23:39:59.761Z,5.74
2017-12-19T23:42:25.500Z,5.75
2017-12-19T23:44:51.257Z,5.74
2017-12-19T23:47:17.008Z,5.76
2017-12-19T23:49:42.773Z,5.75
2017-12-19T23:52:08.531Z,5.78
2017-12-19T23:54:34.302Z,5.76
2017-12-19T23:57:00.068Z,5.75
2017-12-19T23:59:25.844Z,5.75
